createdAt,value
2022-11-26T00:01:48.657Z,9.90
2022-11-26T00:05:55.742Z,9.80
2022-11-26T00:10:00.167Z,9.70
2022-11-26T00:14:03.678Z,9.60
2022-11-26T00:18:07.099Z,9.60
2022-11-26T00:22:26.870Z,9.60
2022-11-26T00:26:30.738Z,9.60
2022-11-26T00:30:34.350Z,9.60
2022-11-26T00:34:38.248Z,9.60
2022-11-26T00:38:42.087Z,9.70
2022-11-26T00:42:46.005Z,9.70
2022-11-26T00:46:50.298Z,9.70
2022-11-26T00:50:54.065Z,9.70
2022-11-26T00:54:57.677Z,9.70
2022-11-26T00:59:01.181Z,9.80
2022-11-26T01:03:04.873Z,9.80
2022-11-26T01:07:11.234Z,9.80
2022-11-26T01:11:19.200Z,9.90
2022-11-26T01:15:25.842Z,10.00
2022-11-26T01:19:29.965Z,9.90
2022-11-26T01:23:33.459Z,10.00
2022-11-26T01:27:36.925Z,10.00
2022-11-26T01:31:40.437Z,10.00
2022-11-26T01:35:45.886Z,10.00
2022-11-26T01:39:49.534Z,10.00
2022-11-26T01:43:56.946Z,9.90
2022-11-26T01:48:00.485Z,9.90
2022-11-26T01:52:07.421Z,9.90
2022-11-26T01:56:45.701Z,9.90
2022-11-26T02:00:52.621Z,9.80
2022-11-26T02:05:09.636Z,9.80
2022-11-26T02:09:14.022Z,9.80
2022-11-26T02:13:18.613Z,9.80
2022-11-26T02:17:43.656Z,9.80
2022-11-26T02:21:56.639Z,9.70
2022-11-26T02:26:37.673Z,9.70
2022-11-26T02:30:53.486Z,9.70
2022-11-26T02:35:09.154Z,9.80
2022-11-26T02:39:24.148Z,9.80
2022-11-26T02:43:28.123Z,9.70
2022-11-26T02:47:34.702Z,9.70
2022-11-26T02:51:39.110Z,9.70
2022-11-26T02:55:48.043Z,9.70
2022-11-26T02:59:51.699Z,9.60
2022-11-26T03:04:01.363Z,9.70
2022-11-26T03:08:07.018Z,9.70
2022-11-26T03:12:10.717Z,9.70
2022-11-26T03:16:14.572Z,9.70
2022-11-26T03:20:18.527Z,9.70
2022-11-26T03:24:22.051Z,9.60
2022-11-26T03:28:25.515Z,9.60
2022-11-26T03:32:29.141Z,9.50
2022-11-26T03:36:34.925Z,9.50
2022-11-26T03:40:38.752Z,9.40
2022-11-26T03:44:42.286Z,9.40
2022-11-26T03:48:45.733Z,9.30
2022-11-26T03:52:49.220Z,9.30
2022-11-26T03:56:52.658Z,9.40
2022-11-26T04:00:56.295Z,9.50
2022-11-26T04:05:00.810Z,9.50
2022-11-26T04:09:05.075Z,9.60
2022-11-26T04:13:09.514Z,9.60
2022-11-26T04:17:14.802Z,9.60
2022-11-26T04:21:19.081Z,9.60
2022-11-26T04:25:26.773Z,9.50
2022-11-26T04:29:30.543Z,9.50
2022-11-26T04:33:34.008Z,9.40
2022-11-26T04:37:37.556Z,9.30
2022-11-26T04:41:43.099Z,9.30
2022-11-26T04:45:46.907Z,9.30
2022-11-26T04:49:50.561Z,9.30
2022-11-26T04:53:55.980Z,9.30
2022-11-26T04:58:02.779Z,9.20
2022-11-26T05:02:06.295Z,9.20
2022-11-26T05:06:11.013Z,9.20
2022-11-26T05:10:14.584Z,9.10
2022-11-26T05:14:18.645Z,9.10
2022-11-26T05:18:22.878Z,9.00
2022-11-26T05:22:26.454Z,8.90
2022-11-26T05:26:29.925Z,8.90
2022-11-26T05:30:34.637Z,8.90
2022-11-26T05:34:39.645Z,8.80
2022-11-26T05:38:43.135Z,8.80
2022-11-26T05:42:46.648Z,8.70
2022-11-26T05:46:51.533Z,8.70
2022-11-26T05:50:59.706Z,8.80
2022-11-26T05:55:03.648Z,9.00
2022-11-26T05:59:08.263Z,9.20
2022-11-26T06:03:18.397Z,9.40
2022-11-26T06:07:24.840Z,9.60
2022-11-26T06:11:28.714Z,9.70
2022-11-26T06:15:33.116Z,9.80
2022-11-26T06:19:36.918Z,10.00
2022-11-26T06:23:47.412Z,10.20
2022-11-26T06:27:56.794Z,10.30
2022-11-26T06:32:00.848Z,10.40
2022-11-26T06:36:06.784Z,10.50
2022-11-26T06:40:18.178Z,10.50
2022-11-26T06:44:22.229Z,10.60
2022-11-26T06:48:26.685Z,10.70
2022-11-26T06:52:30.437Z,10.70
2022-11-26T06:56:36.197Z,10.70
2022-11-26T07:00:40.389Z,10.70
2022-11-26T07:04:44.169Z,10.70
2022-11-26T07:08:48.962Z,10.70
2022-11-26T07:12:52.729Z,10.70
2022-11-26T07:16:57.605Z,10.70
2022-11-26T07:21:10.252Z,10.70
2022-11-26T07:25:16.207Z,10.80
2022-11-26T07:29:21.167Z,10.90
2022-11-26T07:33:24.505Z,11.00
2022-11-26T07:37:28.732Z,11.10
2022-11-26T07:41:32.457Z,11.20
2022-11-26T07:45:38.575Z,11.60
2022-11-26T07:49:42.973Z,11.80
2022-11-26T07:53:47.306Z,11.90
2022-11-26T07:57:50.983Z,12.40
2022-11-26T08:01:54.552Z,13.50
2022-11-26T08:05:58.296Z,14.10
2022-11-26T08:10:01.988Z,14.80
2022-11-26T08:14:08.262Z,15.40
2022-11-26T08:18:12.220Z,15.90
2022-11-26T08:22:15.687Z,16.40
2022-11-26T08:26:25.064Z,16.40
2022-11-26T08:30:34.662Z,16.10
2022-11-26T08:34:40.266Z,16.50
2022-11-26T08:38:43.809Z,17.20
2022-11-26T08:42:47.253Z,17.90
2022-11-26T08:46:50.900Z,18.20
2022-11-26T08:50:59.501Z,18.60
2022-11-26T08:55:03.302Z,18.80
2022-11-26T08:59:06.898Z,18.70
2022-11-26T09:03:10.489Z,18.80
2022-11-26T09:07:15.694Z,19.00
2022-11-26T09:11:22.162Z,18.70
2022-11-26T09:15:25.927Z,18.40
2022-11-26T09:19:29.995Z,17.90
2022-11-26T09:23:33.367Z,17.40
2022-11-26T09:27:39.535Z,16.80
2022-11-26T09:32:01.194Z,16.20
2022-11-26T09:36:13.510Z,15.90
2022-11-26T09:40:19.510Z,15.30
2022-11-26T09:44:56.082Z,14.80
2022-11-26T09:49:04.160Z,14.40
2022-11-26T09:53:28.165Z,14.20
2022-11-26T09:57:35.756Z,14.20
2022-11-26T10:01:41.197Z,14.10
2022-11-26T10:06:03.086Z,13.90
2022-11-26T10:10:28.059Z,13.90
2022-11-26T10:14:43.461Z,14.10
2022-11-26T10:18:56.336Z,15.20
2022-11-26T10:23:11.524Z,15.50
2022-11-26T10:27:18.665Z,15.20
2022-11-26T10:31:28.636Z,15.00
2022-11-26T10:35:33.640Z,15.10
2022-11-26T10:39:38.016Z,16.00
2022-11-26T10:43:41.746Z,16.50
2022-11-26T10:47:45.178Z,16.40
2022-11-26T10:51:56.018Z,16.20
2022-11-26T10:56:07.442Z,16.20
2022-11-26T11:00:36.397Z,16.90
2022-11-26T11:04:45.604Z,17.90
2022-11-26T11:08:51.290Z,17.70
2022-11-26T11:13:09.105Z,17.10
2022-11-26T11:17:37.427Z,16.70
2022-11-26T11:21:48.373Z,16.30
2022-11-26T11:26:16.131Z,16.20
2022-11-26T11:30:28.179Z,16.00
2022-11-26T11:34:44.831Z,16.20
2022-11-26T11:38:48.275Z,16.60
2022-11-26T11:43:06.438Z,16.20
2022-11-26T11:47:31.054Z,15.60
2022-11-26T11:52:00.855Z,15.10
2022-11-26T11:56:34.418Z,15.00
2022-11-26T12:01:06.817Z,15.60
2022-11-26T12:05:39.831Z,16.80
2022-11-26T12:10:01.569Z,17.80
2022-11-26T12:14:24.790Z,18.50
2022-11-26T12:18:35.425Z,18.50
2022-11-26T12:23:24.767Z,18.40
2022-11-26T12:27:42.284Z,17.90
2022-11-26T12:31:58.835Z,17.70
2022-11-26T12:36:30.007Z,17.10
2022-11-26T12:40:42.529Z,16.50
2022-11-26T12:44:51.986Z,16.10
2022-11-26T12:49:03.780Z,16.00
2022-11-26T12:53:16.262Z,15.80
2022-11-26T12:57:29.779Z,15.80
2022-11-26T13:01:34.253Z,15.70
2022-11-26T13:05:58.815Z,15.40
2022-11-26T13:10:14.873Z,15.00
2022-11-26T13:14:27.422Z,14.80
2022-11-26T13:18:37.485Z,14.70
2022-11-26T13:22:54.021Z,14.60
2022-11-26T13:27:28.420Z,14.40
2022-11-26T13:31:44.577Z,14.30
2022-11-26T13:36:06.853Z,14.60
2022-11-26T13:41:02.379Z,15.10
2022-11-26T13:45:18.562Z,15.80
2022-11-26T13:49:30.489Z,16.20
2022-11-26T13:53:46.871Z,16.30
2022-11-26T13:57:54.245Z,16.60
2022-11-26T14:02:00.704Z,16.70
2022-11-26T14:06:08.482Z,16.70
2022-11-26T14:10:31.635Z,16.70
2022-11-26T14:14:40.833Z,17.00
2022-11-26T14:18:56.868Z,17.10
2022-11-26T14:23:38.825Z,17.00
2022-11-26T14:27:55.048Z,16.80
2022-11-26T14:31:59.709Z,16.60
2022-11-26T14:36:03.396Z,16.40
2022-11-26T14:40:20.451Z,16.20
2022-11-26T14:44:25.634Z,16.00
2022-11-26T14:48:30.748Z,15.80
2022-11-26T14:52:37.795Z,15.70
2022-11-26T14:56:46.414Z,15.70
2022-11-26T15:01:08.920Z,15.50
2022-11-26T15:05:21.584Z,15.30
2022-11-26T15:09:27.919Z,15.10
2022-11-26T15:13:41.967Z,14.90
2022-11-26T15:17:50.107Z,14.50
2022-11-26T15:21:53.871Z,14.20
2022-11-26T15:25:59.069Z,13.90
2022-11-26T15:30:04.926Z,13.70
2022-11-26T15:34:13.594Z,13.60
2022-11-26T15:38:20.285Z,13.40
2022-11-26T15:42:32.599Z,13.20
2022-11-26T15:46:37.801Z,13.10
2022-11-26T15:50:46.718Z,12.90
2022-11-26T15:55:12.940Z,12.70
2022-11-26T15:59:17.638Z,12.70
2022-11-26T16:03:54.300Z,12.50
2022-11-26T16:08:06.162Z,12.30
2022-11-26T16:12:30.145Z,12.20
2022-11-26T16:16:33.618Z,12.10
2022-11-26T16:20:38.283Z,12.00
2022-11-26T16:24:45.406Z,11.90
2022-11-26T16:28:49.985Z,11.90
2022-11-26T16:32:53.519Z,11.80
2022-11-26T16:37:02.638Z,11.80
2022-11-26T16:41:06.460Z,11.70
2022-11-26T16:45:12.218Z,11.80
2022-11-26T16:49:16.665Z,11.80
2022-11-26T16:53:20.898Z,11.70
2022-11-26T16:57:27.897Z,11.70
2022-11-26T17:01:31.994Z,11.70
2022-11-26T17:05:38.421Z,11.60
2022-11-26T17:09:42.576Z,11.60
2022-11-26T17:13:46.478Z,11.60
2022-11-26T17:17:52.794Z,11.50
2022-11-26T17:21:56.351Z,11.50
2022-11-26T17:26:01.135Z,11.50
2022-11-26T17:30:07.606Z,11.40
2022-11-26T17:34:11.122Z,11.40
2022-11-26T17:38:20.410Z,11.40
2022-11-26T17:42:25.024Z,11.30
2022-11-26T17:46:30.023Z,11.30
2022-11-26T17:50:36.766Z,11.20
2022-11-26T17:54:40.494Z,11.20
2022-11-26T17:58:45.019Z,11.30
2022-11-26T18:02:48.699Z,11.30
2022-11-26T18:07:14.933Z,11.30
2022-11-26T18:11:18.512Z,11.30
2022-11-26T18:15:27.107Z,11.20
2022-11-26T18:19:32.149Z,11.20
2022-11-26T18:23:38.951Z,11.30
2022-11-26T18:27:42.312Z,11.30
2022-11-26T18:31:45.683Z,11.30
2022-11-26T18:35:51.468Z,11.30
2022-11-26T18:39:55.261Z,11.30
2022-11-26T18:44:00.822Z,11.30
2022-11-26T18:48:05.180Z,11.20
2022-11-26T18:52:08.767Z,11.20
2022-11-26T18:56:22.819Z,11.20
2022-11-26T19:00:26.377Z,11.10
2022-11-26T19:04:32.493Z,11.10
2022-11-26T19:08:39.100Z,11.00
2022-11-26T19:12:42.555Z,11.00
2022-11-26T19:16:50.378Z,11.00
2022-11-26T19:20:55.788Z,11.00
2022-11-26T19:24:59.871Z,11.00
2022-11-26T19:29:05.779Z,10.90
2022-11-26T19:33:09.359Z,10.90
2022-11-26T19:37:12.803Z,10.90
2022-11-26T19:41:20.091Z,10.80
2022-11-26T19:45:26.388Z,10.80
2022-11-26T19:49:30.083Z,10.80
2022-11-26T19:53:34.894Z,10.80
2022-11-26T19:57:38.352Z,10.80
2022-11-26T20:01:42.265Z,10.70
2022-11-26T20:05:46.489Z,10.70
2022-11-26T20:09:53.326Z,10.70
2022-11-26T20:13:57.724Z,10.70
2022-11-26T20:18:01.221Z,10.70
2022-11-26T20:22:05.714Z,10.70
2022-11-26T20:26:25.454Z,10.80
2022-11-26T20:30:30.321Z,10.70
2022-11-26T20:34:34.022Z,10.80
2022-11-26T20:38:38.213Z,10.80
2022-11-26T20:42:45.705Z,10.70
2022-11-26T20:46:49.152Z,10.80
2022-11-26T20:50:53.756Z,10.80
2022-11-26T20:54:58.039Z,10.80
2022-11-26T20:59:02.181Z,10.90
2022-11-26T21:03:05.616Z,10.80
2022-11-26T21:07:09.195Z,10.90
2022-11-26T21:11:14.898Z,10.90
2022-11-26T21:15:19.339Z,11.00
2022-11-26T21:19:22.838Z,10.90
2022-11-26T21:23:27.498Z,10.90
2022-11-26T21:27:33.294Z,10.90
2022-11-26T21:31:36.852Z,10.90
2022-11-26T21:35:43.260Z,10.80
2022-11-26T21:39:47.610Z,10.90
2022-11-26T21:43:52.191Z,10.80
2022-11-26T21:47:56.518Z,10.80
2022-11-26T21:52:00.107Z,10.70
2022-11-26T21:56:14.100Z,10.70
2022-11-26T22:00:18.383Z,10.70
2022-11-26T22:04:21.909Z,10.70
2022-11-26T22:08:25.640Z,10.70
2022-11-26T22:12:29.604Z,10.70
2022-11-26T22:16:33.527Z,10.70
2022-11-26T22:20:37.448Z,10.70
2022-11-26T22:24:41.814Z,10.60
2022-11-26T22:28:47.288Z,10.60
2022-11-26T22:32:50.755Z,10.60
2022-11-26T22:36:54.172Z,10.60
2022-11-26T22:41:02.371Z,10.60
2022-11-26T22:45:07.336Z,10.50
2022-11-26T22:49:20.112Z,10.50
2022-11-26T22:53:25.553Z,10.50
2022-11-26T22:57:28.993Z,10.40
2022-11-26T23:01:35.032Z,10.40
2022-11-26T23:05:39.967Z,10.30
2022-11-26T23:09:46.910Z,10.20
2022-11-26T23:13:51.438Z,10.30
2022-11-26T23:17:54.918Z,10.20
2022-11-26T23:21:58.391Z,10.20
2022-11-26T23:26:03.409Z,10.10
2022-11-26T23:30:07.585Z,10.00
2022-11-26T23:34:11.346Z,9.90
2022-11-26T23:38:14.766Z,9.80
2022-11-26T23:42:18.758Z,9.80
2022-11-26T23:46:25.972Z,9.80
2022-11-26T23:50:30.455Z,9.70
2022-11-26T23:54:34.041Z,9.60
2022-11-26T23:58:37.738Z,9.50
